sensor_id;sensor_type;location;lat;lon;timestamp;P1;durP1;ratioP1;P2;durP2;ratioP2
57055;SDS011;42945;51.718;5.324;2022-09-12T00:05:18;48.75;;;26.75;;
57055;SDS011;42945;51.718;5.324;2022-09-12T00:11:09;45.53;;;26.88;;
57055;SDS011;42945;51.718;5.324;2022-09-12T00:16:59;43.42;;;25.10;;
57055;SDS011;42945;51.718;5.324;2022-09-12T00:26:47;51.13;;;27.73;;
57055;SDS011;42945;51.718;5.324;2022-09-12T00:32:37;44.35;;;25.45;;
57055;SDS011;42945;51.718;5.324;2022-09-12T00:38:25;41.75;;;25.50;;
57055;SDS011;42945;51.718;5.324;2022-09-12T00:50:11;48.67;;;26.33;;
57055;SDS011;42945;51.718;5.324;2022-09-12T00:56:01;45.80;;;26.73;;
57055;SDS011;42945;51.718;5.324;2022-09-12T01:01:52;52.67;;;27.52;;
57055;SDS011;42945;51.718;5.324;2022-09-12T01:07:42;47.78;;;26.65;;
57055;SDS011;42945;51.718;5.324;2022-09-12T01:13:35;53.28;;;27.08;;
57055;SDS011;42945;51.718;5.324;2022-09-12T01:30:00;54.15;;;28.58;;
57055;SDS011;42945;51.718;5.324;2022-09-12T01:42:19;50.88;;;28.58;;
57055;SDS011;42945;51.718;5.324;2022-09-12T01:48:20;49.45;;;28.75;;
57055;SDS011;42945;51.718;5.324;2022-09-12T01:54:15;45.67;;;26.63;;
57055;SDS011;42945;51.718;5.324;2022-09-12T02:00:12;49.78;;;27.33;;
57055;SDS011;42945;51.718;5.324;2022-09-12T02:06:01;45.83;;;26.83;;
57055;SDS011;42945;51.718;5.324;2022-09-12T02:11:59;52.20;;;27.23;;
57055;SDS011;42945;51.718;5.324;2022-09-12T02:17:51;53.08;;;28.33;;
57055;SDS011;42945;51.718;5.324;2022-09-12T02:23:43;55.25;;;28.83;;
57055;SDS011;42945;51.718;5.324;2022-09-12T02:29:33;55.63;;;29.02;;
57055;SDS011;42945;51.718;5.324;2022-09-12T02:35:22;53.10;;;27.83;;
57055;SDS011;42945;51.718;5.324;2022-09-12T02:41:13;55.55;;;28.17;;
57055;SDS011;42945;51.718;5.324;2022-09-12T02:47:10;58.35;;;29.17;;
57055;SDS011;42945;51.718;5.324;2022-09-12T02:53:04;53.45;;;28.92;;
57055;SDS011;42945;51.718;5.324;2022-09-12T02:58:56;61.05;;;29.70;;
57055;SDS011;42945;51.718;5.324;2022-09-12T03:23:08;49.83;;;28.15;;
57055;SDS011;42945;51.718;5.324;2022-09-12T03:33:09;50.33;;;27.98;;
57055;SDS011;42945;51.718;5.324;2022-09-12T03:39:03;52.03;;;27.23;;
57055;SDS011;42945;51.718;5.324;2022-09-12T03:44:50;63.00;;;29.67;;
57055;SDS011;42945;51.718;5.324;2022-09-12T03:50:38;56.13;;;27.98;;
57055;SDS011;42945;51.718;5.324;2022-09-12T03:56:25;51.67;;;28.40;;
57055;SDS011;42945;51.718;5.324;2022-09-12T04:02:14;56.50;;;29.25;;
57055;SDS011;42945;51.718;5.324;2022-09-12T04:08:03;46.80;;;27.27;;
57055;SDS011;42945;51.718;5.324;2022-09-12T04:13:51;49.88;;;27.95;;
57055;SDS011;42945;51.718;5.324;2022-09-12T04:19:39;53.23;;;27.47;;
57055;SDS011;42945;51.718;5.324;2022-09-12T04:25:27;53.10;;;28.02;;
57055;SDS011;42945;51.718;5.324;2022-09-12T04:35:15;51.97;;;26.88;;
57055;SDS011;42945;51.718;5.324;2022-09-12T04:41:22;49.67;;;27.95;;
57055;SDS011;42945;51.718;5.324;2022-09-12T04:47:16;47.88;;;27.40;;
57055;SDS011;42945;51.718;5.324;2022-09-12T04:53:05;56.72;;;28.52;;
57055;SDS011;42945;51.718;5.324;2022-09-12T04:58:53;50.60;;;27.27;;
57055;SDS011;42945;51.718;5.324;2022-09-12T05:04:45;49.55;;;26.73;;
57055;SDS011;42945;51.718;5.324;2022-09-12T05:10:34;48.88;;;27.80;;
57055;SDS011;42945;51.718;5.324;2022-09-12T05:16:23;52.08;;;26.35;;
57055;SDS011;42945;51.718;5.324;2022-09-12T05:22:12;56.50;;;28.42;;
57055;SDS011;42945;51.718;5.324;2022-09-12T05:27:59;56.20;;;27.95;;
57055;SDS011;42945;51.718;5.324;2022-09-12T05:37:50;49.55;;;27.23;;
57055;SDS011;42945;51.718;5.324;2022-09-12T05:43:39;49.45;;;28.15;;
57055;SDS011;42945;51.718;5.324;2022-09-12T05:49:28;52.15;;;28.20;;
57055;SDS011;42945;51.718;5.324;2022-09-12T05:55:18;48.88;;;26.27;;
57055;SDS011;42945;51.718;5.324;2022-09-12T06:01:06;54.80;;;27.27;;
57055;SDS011;42945;51.718;5.324;2022-09-12T06:06:57;51.38;;;28.02;;
57055;SDS011;42945;51.718;5.324;2022-09-12T06:12:47;57.65;;;28.40;;
57055;SDS011;42945;51.718;5.324;2022-09-12T06:18:34;49.45;;;26.98;;
57055;SDS011;42945;51.718;5.324;2022-09-12T06:24:23;52.53;;;28.90;;
57055;SDS011;42945;51.718;5.324;2022-09-12T06:30:12;51.00;;;27.77;;
57055;SDS011;42945;51.718;5.324;2022-09-12T06:39:53;56.22;;;29.02;;
57055;SDS011;42945;51.718;5.324;2022-09-12T06:45:52;52.72;;;27.95;;
57055;SDS011;42945;51.718;5.324;2022-09-12T06:51:40;53.33;;;28.10;;
57055;SDS011;42945;51.718;5.324;2022-09-12T06:57:30;46.45;;;26.50;;
57055;SDS011;42945;51.718;5.324;2022-09-12T07:03:22;44.40;;;25.48;;
57055;SDS011;42945;51.718;5.324;2022-09-12T07:09:12;40.45;;;25.10;;
57055;SDS011;42945;51.718;5.324;2022-09-12T07:15:04;41.42;;;24.33;;
57055;SDS011;42945;51.718;5.324;2022-09-12T07:20:53;37.23;;;22.37;;
57055;SDS011;42945;51.718;5.324;2022-09-12T07:26:41;36.60;;;22.23;;
57055;SDS011;42945;51.718;5.324;2022-09-12T07:32:30;34.78;;;22.42;;
57055;SDS011;42945;51.718;5.324;2022-09-12T07:42:18;34.63;;;21.55;;
57055;SDS011;42945;51.718;5.324;2022-09-12T07:48:07;36.72;;;22.05;;
57055;SDS011;42945;51.718;5.324;2022-09-12T07:53:56;35.53;;;21.93;;
57055;SDS011;42945;51.718;5.324;2022-09-12T07:59:45;33.83;;;19.65;;
57055;SDS011;42945;51.718;5.324;2022-09-12T08:05:32;31.27;;;19.83;;
57055;SDS011;42945;51.718;5.324;2022-09-12T08:11:22;29.17;;;17.63;;
57055;SDS011;42945;51.718;5.324;2022-09-12T08:17:12;31.77;;;18.73;;
57055;SDS011;42945;51.718;5.324;2022-09-12T08:23:01;29.73;;;17.77;;
57055;SDS011;42945;51.718;5.324;2022-09-12T08:28:49;27.02;;;16.38;;
57055;SDS011;42945;51.718;5.324;2022-09-12T08:34:40;25.05;;;16.17;;
57055;SDS011;42945;51.718;5.324;2022-09-12T08:50:37;19.95;;;13.35;;
57055;SDS011;42945;51.718;5.324;2022-09-12T08:56:31;22.43;;;14.93;;
57055;SDS011;42945;51.718;5.324;2022-09-12T09:02:31;22.17;;;13.48;;
57055;SDS011;42945;51.718;5.324;2022-09-12T09:26:43;15.57;;;11.03;;
57055;SDS011;42945;51.718;5.324;2022-09-12T09:32:42;14.37;;;10.37;;
57055;SDS011;42945;51.718;5.324;2022-09-12T09:38:40;15.63;;;10.32;;
57055;SDS011;42945;51.718;5.324;2022-09-12T09:44:45;17.55;;;11.15;;
57055;SDS011;42945;51.718;5.324;2022-09-12T09:50:36;15.90;;;10.13;;
57055;SDS011;42945;51.718;5.324;2022-09-12T09:56:39;16.10;;;10.00;;
57055;SDS011;42945;51.718;5.324;2022-09-12T10:02:34;16.85;;;9.52;;
57055;SDS011;42945;51.718;5.324;2022-09-12T10:08:31;14.10;;;8.50;;
57055;SDS011;42945;51.718;5.324;2022-09-12T10:14:38;11.23;;;7.00;;
57055;SDS011;42945;51.718;5.324;2022-09-12T10:26:22;8.90;;;6.45;;
57055;SDS011;42945;51.718;5.324;2022-09-12T10:32:11;12.17;;;7.50;;
57055;SDS011;42945;51.718;5.324;2022-09-12T10:38:16;10.02;;;6.43;;
57055;SDS011;42945;51.718;5.324;2022-09-12T10:44:22;9.20;;;5.55;;
57055;SDS011;42945;51.718;5.324;2022-09-12T10:50:18;8.30;;;5.75;;
57055;SDS011;42945;51.718;5.324;2022-09-12T11:08:02;7.97;;;5.93;;
57055;SDS011;42945;51.718;5.324;2022-09-12T11:25:58;5.32;;;3.70;;
57055;SDS011;42945;51.718;5.324;2022-09-12T11:44:19;7.50;;;4.40;;
57055;SDS011;42945;51.718;5.324;2022-09-12T11:50:29;6.65;;;4.32;;
57055;SDS011;42945;51.718;5.324;2022-09-12T11:56:18;6.20;;;4.63;;
57055;SDS011;42945;51.718;5.324;2022-09-12T12:02:10;9.85;;;4.35;;
57055;SDS011;42945;51.718;5.324;2022-09-12T12:08:04;6.28;;;4.22;;
57055;SDS011;42945;51.718;5.324;2022-09-12T12:13:56;12.98;;;4.38;;
57055;SDS011;42945;51.718;5.324;2022-09-12T12:20:00;6.53;;;3.80;;
57055;SDS011;42945;51.718;5.324;2022-09-12T12:25:51;7.20;;;4.10;;
57055;SDS011;42945;51.718;5.324;2022-09-12T12:37:51;6.25;;;3.67;;
57055;SDS011;42945;51.718;5.324;2022-09-12T12:47:45;4.13;;;3.22;;
57055;SDS011;42945;51.718;5.324;2022-09-12T12:53:36;3.72;;;2.88;;
57055;SDS011;42945;51.718;5.324;2022-09-12T12:59:29;5.32;;;3.35;;
57055;SDS011;42945;51.718;5.324;2022-09-12T13:05:18;4.78;;;3.15;;
57055;SDS011;42945;51.718;5.324;2022-09-12T13:11:13;4.80;;;3.15;;
57055;SDS011;42945;51.718;5.324;2022-09-12T13:17:22;5.30;;;2.60;;
57055;SDS011;42945;51.718;5.324;2022-09-12T13:23:23;2.83;;;2.50;;
57055;SDS011;42945;51.718;5.324;2022-09-12T13:35:11;6.03;;;2.40;;
57055;SDS011;42945;51.718;5.324;2022-09-12T13:41:18;3.40;;;2.00;;
57055;SDS011;42945;51.718;5.324;2022-09-12T13:51:22;4.07;;;1.90;;
57055;SDS011;42945;51.718;5.324;2022-09-12T13:57:28;3.60;;;1.80;;
57055;SDS011;42945;51.718;5.324;2022-09-12T14:03:27;2.65;;;2.00;;
57055;SDS011;42945;51.718;5.324;2022-09-12T14:09:40;3.17;;;1.50;;
57055;SDS011;42945;51.718;5.324;2022-09-12T14:15:31;6.75;;;1.63;;
57055;SDS011;42945;51.718;5.324;2022-09-12T14:27:23;1.83;;;1.65;;
57055;SDS011;42945;51.718;5.324;2022-09-12T14:33:18;2.03;;;1.45;;
57055;SDS011;42945;51.718;5.324;2022-09-12T14:39:45;3.25;;;1.65;;
57055;SDS011;42945;51.718;5.324;2022-09-12T14:45:31;4.13;;;1.85;;
57055;SDS011;42945;51.718;5.324;2022-09-12T14:51:25;2.00;;;1.80;;
57055;SDS011;42945;51.718;5.324;2022-09-12T15:03:27;1.90;;;1.70;;
57055;SDS011;42945;51.718;5.324;2022-09-12T15:09:17;5.13;;;2.20;;
57055;SDS011;42945;51.718;5.324;2022-09-12T15:15:27;7.65;;;2.30;;
57055;SDS011;42945;51.718;5.324;2022-09-12T15:21:16;3.80;;;2.03;;
57055;SDS011;42945;51.718;5.324;2022-09-12T15:27:12;3.60;;;2.30;;
57055;SDS011;42945;51.718;5.324;2022-09-12T15:33:00;4.15;;;2.03;;
57055;SDS011;42945;51.718;5.324;2022-09-12T15:38:48;5.15;;;1.80;;
57055;SDS011;42945;51.718;5.324;2022-09-12T15:44:37;7.72;;;2.58;;
57055;SDS011;42945;51.718;5.324;2022-09-12T15:47:04;4.60;;;1.98;;
57055;SDS011;42945;51.718;5.324;2022-09-12T15:52:55;3.35;;;2.10;;
57055;SDS011;42945;51.718;5.324;2022-09-12T15:58:43;3.58;;;2.08;;
57055;SDS011;42945;51.718;5.324;2022-09-12T16:04:32;1.90;;;1.80;;
57055;SDS011;42945;51.718;5.324;2022-09-12T16:10:21;3.25;;;1.80;;
57055;SDS011;42945;51.718;5.324;2022-09-12T16:16:12;2.83;;;1.67;;
57055;SDS011;42945;51.718;5.324;2022-09-12T16:22:00;3.63;;;1.73;;
57055;SDS011;42945;51.718;5.324;2022-09-12T16:27:48;2.15;;;1.92;;
57055;SDS011;42945;51.718;5.324;2022-09-12T16:33:40;3.42;;;1.88;;
57055;SDS011;42945;51.718;5.324;2022-09-12T16:39:29;3.08;;;2.05;;
57055;SDS011;42945;51.718;5.324;2022-09-12T16:45:17;4.30;;;1.77;;
57055;SDS011;42945;51.718;5.324;2022-09-12T16:51:04;4.70;;;1.42;;
57055;SDS011;42945;51.718;5.324;2022-09-12T16:56:57;6.18;;;1.92;;
57055;SDS011;42945;51.718;5.324;2022-09-12T17:02:45;2.40;;;2.00;;
57055;SDS011;42945;51.718;5.324;2022-09-12T17:08:34;4.82;;;1.75;;
57055;SDS011;42945;51.718;5.324;2022-09-12T17:14:24;7.22;;;1.88;;
57055;SDS011;42945;51.718;5.324;2022-09-12T17:20:17;3.28;;;1.70;;
57055;SDS011;42945;51.718;5.324;2022-09-12T17:26:05;4.25;;;1.95;;
57055;SDS011;42945;51.718;5.324;2022-09-12T17:31:54;7.30;;;1.95;;
57055;SDS011;42945;51.718;5.324;2022-09-12T17:37:43;5.25;;;2.05;;
57055;SDS011;42945;51.718;5.324;2022-09-12T17:43:32;3.45;;;1.83;;
57055;SDS011;42945;51.718;5.324;2022-09-12T17:53:22;3.75;;;2.03;;
57055;SDS011;42945;51.718;5.324;2022-09-12T17:59:15;2.63;;;2.20;;
57055;SDS011;42945;51.718;5.324;2022-09-12T18:05:05;4.03;;;1.90;;
57055;SDS011;42945;51.718;5.324;2022-09-12T18:11:01;6.13;;;2.67;;
57055;SDS011;42945;51.718;5.324;2022-09-12T18:16:53;4.40;;;2.70;;
57055;SDS011;42945;51.718;5.324;2022-09-12T18:22:43;3.65;;;2.30;;
57055;SDS011;42945;51.718;5.324;2022-09-12T18:28:31;6.18;;;2.97;;
57055;SDS011;42945;51.718;5.324;2022-09-12T18:34:24;4.30;;;2.67;;
57055;SDS011;42945;51.718;5.324;2022-09-12T18:40:12;4.23;;;2.40;;
57055;SDS011;42945;51.718;5.324;2022-09-12T18:46:01;3.25;;;2.38;;
57055;SDS011;42945;51.718;5.324;2022-09-12T18:55:58;5.45;;;3.10;;
57055;SDS011;42945;51.718;5.324;2022-09-12T19:01:54;5.13;;;3.10;;
57055;SDS011;42945;51.718;5.324;2022-09-12T19:07:43;7.97;;;3.63;;
57055;SDS011;42945;51.718;5.324;2022-09-12T19:13:33;4.10;;;3.20;;
57055;SDS011;42945;51.718;5.324;2022-09-12T19:19:24;4.85;;;3.28;;
57055;SDS011;42945;51.718;5.324;2022-09-12T19:25:12;5.47;;;4.00;;
57055;SDS011;42945;51.718;5.324;2022-09-12T19:31:06;5.60;;;3.47;;
57055;SDS011;42945;51.718;5.324;2022-09-12T19:36:56;7.53;;;3.53;;
57055;SDS011;42945;51.718;5.324;2022-09-12T19:42:45;8.00;;;2.78;;
57055;SDS011;42945;51.718;5.324;2022-09-12T19:48:34;5.68;;;3.17;;
57055;SDS011;42945;51.718;5.324;2022-09-12T19:58:23;4.97;;;2.90;;
57055;SDS011;42945;51.718;5.324;2022-09-12T20:04:11;5.53;;;3.22;;
57055;SDS011;42945;51.718;5.324;2022-09-12T20:09:58;6.70;;;3.50;;
57055;SDS011;42945;51.718;5.324;2022-09-12T20:15:47;4.07;;;3.17;;
57055;SDS011;42945;51.718;5.324;2022-09-12T20:21:36;6.68;;;3.80;;
57055;SDS011;42945;51.718;5.324;2022-09-12T20:27:25;4.38;;;3.75;;
57055;SDS011;42945;51.718;5.324;2022-09-12T20:33:14;8.17;;;3.97;;
57055;SDS011;42945;51.718;5.324;2022-09-12T20:39:18;6.78;;;3.90;;
57055;SDS011;42945;51.718;5.324;2022-09-12T20:45:07;7.65;;;4.40;;
57055;SDS011;42945;51.718;5.324;2022-09-12T20:50:59;7.32;;;4.30;;
57055;SDS011;42945;51.718;5.324;2022-09-12T21:00:58;10.13;;;4.90;;
57055;SDS011;42945;51.718;5.324;2022-09-12T21:06:47;8.70;;;5.03;;
57055;SDS011;42945;51.718;5.324;2022-09-12T21:12:38;9.85;;;4.95;;
57055;SDS011;42945;51.718;5.324;2022-09-12T21:18:28;8.32;;;5.53;;
57055;SDS011;42945;51.718;5.324;2022-09-12T21:24:16;9.70;;;6.03;;
57055;SDS011;42945;51.718;5.324;2022-09-12T21:30:05;14.93;;;6.22;;
57055;SDS011;42945;51.718;5.324;2022-09-12T21:35:54;8.93;;;5.68;;
57055;SDS011;42945;51.718;5.324;2022-09-12T21:41:48;11.47;;;5.43;;
57055;SDS011;42945;51.718;5.324;2022-09-12T21:47:36;10.48;;;5.30;;
57055;SDS011;42945;51.718;5.324;2022-09-12T21:53:26;9.00;;;5.47;;
57055;SDS011;42945;51.718;5.324;2022-09-12T22:03:15;10.23;;;5.00;;
57055;SDS011;42945;51.718;5.324;2022-09-12T22:09:04;11.48;;;5.10;;
57055;SDS011;42945;51.718;5.324;2022-09-12T22:14:53;11.60;;;4.95;;
57055;SDS011;42945;51.718;5.324;2022-09-12T22:20:41;8.33;;;4.87;;
57055;SDS011;42945;51.718;5.324;2022-09-12T22:26:30;13.48;;;5.32;;
57055;SDS011;42945;51.718;5.324;2022-09-12T22:32:25;10.60;;;4.97;;
57055;SDS011;42945;51.718;5.324;2022-09-12T22:38:17;9.43;;;4.80;;
57055;SDS011;42945;51.718;5.324;2022-09-12T22:44:07;9.73;;;5.22;;
57055;SDS011;42945;51.718;5.324;2022-09-12T22:49:56;7.93;;;4.35;;
57055;SDS011;42945;51.718;5.324;2022-09-12T22:55:44;8.83;;;4.63;;
57055;SDS011;42945;51.718;5.324;2022-09-12T23:05:35;10.30;;;5.07;;
57055;SDS011;42945;51.718;5.324;2022-09-12T23:11:25;9.43;;;4.60;;
57055;SDS011;42945;51.718;5.324;2022-09-12T23:17:16;9.90;;;4.45;;
57055;SDS011;42945;51.718;5.324;2022-09-12T23:23:04;8.50;;;4.55;;
57055;SDS011;42945;51.718;5.324;2022-09-12T23:28:53;5.50;;;3.73;;
57055;SDS011;42945;51.718;5.324;2022-09-12T23:34:43;8.10;;;4.00;;
57055;SDS011;42945;51.718;5.324;2022-09-12T23:40:33;5.85;;;3.90;;
57055;SDS011;42945;51.718;5.324;2022-09-12T23:46:22;6.43;;;3.88;;
57055;SDS011;42945;51.718;5.324;2022-09-12T23:52:11;5.53;;;3.58;;
57055;SDS011;42945;51.718;5.324;2022-09-12T23:58:01;8.10;;;4.20;;
